Time;durP1;ratioP1;P1;durP2;ratioP2;P2;SDS_P1;SDS_P2;PMS_P1;PMS_P2;Temp;Humidity;BMP_temperature;BMP_pressure;BME280_temperature;BME280_humidity;BME280_pressure;Samples;Min_cycle;Max_cycle;Signal;HPM_P1;HPM_P2
2022/09/03 00:01:27;;;;;;;3.15;1.83;;;17.40;99.90;;;;;;4971745;28;20055;-80
2022/09/03 00:04:02;;;;;;;2.78;2.20;;;17.40;99.90;;;;;;4976260;28;20087;-82
2022/09/03 00:06:37;;;;;;;4.28;2.40;;;17.50;99.90;;;;;;4978833;28;20070;-82
2022/09/03 00:09:18;;;;;;;3.83;2.03;;;17.50;99.90;;;;;;4956881;28;20055;-80
2022/09/03 00:11:49;;;;;;;6.03;2.30;;;17.40;99.90;;;;;;4977492;28;20071;-80
2022/09/03 00:14:33;;;;;;;4.78;2.28;;;17.40;99.90;;;;;;4978523;28;20077;-82
2022/09/03 00:17:09;;;;;;;5.78;2.22;;;17.40;99.90;;;;;;4967532;28;20153;-83
2022/09/03 00:19:52;;;;;;;3.60;2.20;;;17.40;99.90;;;;;;4967757;28;20442;-81
2022/09/03 00:22:33;;;;;;;2.75;2.42;;;17.50;99.90;;;;;;4974406;28;20086;-82
2022/09/03 00:25:04;;;;;;;5.68;2.83;;;17.50;99.90;;;;;;4963454;28;20093;-82
2022/09/03 00:27:36;;;;;;;5.57;3.38;;;17.50;99.90;;;;;;4979327;28;20067;-82
2022/09/03 00:30:08;;;;;;;4.95;3.10;;;17.50;99.90;;;;;;4960382;28;20480;-81
2022/09/03 00:32:46;;;;;;;3.30;2.35;;;17.50;99.90;;;;;;4978288;28;20090;-80
2022/09/03 00:35:30;;;;;;;4.63;3.05;;;17.60;99.90;;;;;;4970652;28;20047;-80
2022/09/03 00:37:59;;;;;;;4.80;2.88;;;17.60;99.90;;;;;;4970257;28;20085;-81
2022/09/03 00:40:41;;;;;;;5.30;2.92;;;17.60;99.90;;;;;;4968707;28;20146;-81
2022/09/03 00:43:21;;;;;;;4.95;2.75;;;17.60;99.90;;;;;;4974932;28;20075;-84
2022/09/03 00:45:47;;;;;;;3.90;2.55;;;17.70;99.90;;;;;;4974729;28;20417;-83
2022/09/03 00:48:20;;;;;;;2.60;2.40;;;17.70;99.90;;;;;;4976342;28;20114;-83
2022/09/03 00:51:26;;;;;;;5.27;2.63;;;17.70;99.90;;;;;;4971977;28;20050;-79
2022/09/03 00:54:07;;;;;;;5.25;2.58;;;17.70;99.90;;;;;;4975067;28;20673;-82
2022/09/03 00:57:05;;;;;;;2.80;2.35;;;17.70;99.90;;;;;;4978451;28;20055;-82
2022/09/03 00:59:42;;;;;;;3.40;2.88;;;17.70;99.90;;;;;;4962756;28;20109;-82
2022/09/03 01:02:32;;;;;;;2.30;2.10;;;17.80;99.90;;;;;;4978925;28;20497;-82
2022/09/03 01:05:10;;;;;;;2.72;2.53;;;17.80;99.90;;;;;;4971533;28;20107;-83
2022/09/03 01:07:51;;;;;;;5.57;2.78;;;17.80;99.90;;;;;;4963540;28;20047;-81
2022/09/03 01:10:39;;;;;;;3.92;2.50;;;17.90;99.90;;;;;;4963703;28;20070;-81
2022/09/03 01:13:14;;;;;;;2.50;2.25;;;17.80;99.90;;;;;;4978179;28;20397;-82
2022/09/03 01:15:53;;;;;;;2.60;2.40;;;17.90;99.90;;;;;;4976320;28;20082;-79
2022/09/03 01:18:38;;;;;;;2.80;2.33;;;17.90;99.90;;;;;;4976540;28;20105;-82
2022/09/03 01:21:23;;;;;;;2.70;2.50;;;17.90;99.90;;;;;;4975318;28;20051;-81
2022/09/03 01:24:16;;;;;;;3.15;2.45;;;17.90;99.90;;;;;;4962448;28;20051;-82
2022/09/03 01:26:45;;;;;;;2.95;2.30;;;17.90;99.90;;;;;;4973412;28;20501;-82
2022/09/03 01:29:25;;;;;;;3.28;2.33;;;17.90;99.90;;;;;;4973364;28;20483;-83
2022/09/03 01:32:14;;;;;;;3.58;2.28;;;17.90;99.90;;;;;;4971667;28;20054;-81
2022/09/03 01:34:56;;;;;;;3.00;2.70;;;17.90;99.90;;;;;;4972488;28;20086;-81
2022/09/03 01:37:42;;;;;;;4.10;2.90;;;17.90;99.90;;;;;;4972794;28;20421;-81
2022/09/03 01:40:22;;;;;;;5.15;2.45;;;17.90;99.90;;;;;;4974394;28;20069;-83
2022/09/03 01:43:10;;;;;;;5.28;2.70;;;17.90;99.90;;;;;;4974324;28;20074;-83
2022/09/03 01:46:17;;;;;;;2.80;2.38;;;17.90;99.90;;;;;;4975275;28;20046;-81
2022/09/03 01:48:55;;;;;;;4.47;2.72;;;17.80;99.90;;;;;;4968314;28;20074;-82
2022/09/03 01:51:24;;;;;;;4.57;2.15;;;17.80;99.90;;;;;;4987124;28;20601;-81
2022/09/03 01:54:22;;;;;;;3.92;2.42;;;17.80;99.90;;;;;;4956118;28;20051;-81
2022/09/03 01:57:23;;;;;;;2.92;2.30;;;17.80;99.90;;;;;;4977146;28;20066;-82
2022/09/03 02:00:02;;;;;;;3.30;2.15;;;17.80;99.90;;;;;;4962293;28;20157;-83
2022/09/03 02:02:30;;;;;;;3.55;2.30;;;17.80;99.90;;;;;;4965754;28;20055;-81
2022/09/03 02:05:13;;;;;;;2.92;1.95;;;17.80;99.90;;;;;;4961842;28;20057;-79
2022/09/03 02:07:45;;;;;;;3.95;2.42;;;17.80;99.90;;;;;;4972177;28;20051;-82
2022/09/03 02:10:23;;;;;;;3.97;2.38;;;17.80;99.90;;;;;;4972559;28;20047;-80
2022/09/03 02:12:55;;;;;;;4.13;1.95;;;17.90;99.90;;;;;;4971400;28;20575;-82
2022/09/03 02:15:24;;;;;;;5.35;2.20;;;17.90;99.90;;;;;;4974944;28;20055;-80
2022/09/03 02:17:55;;;;;;;3.57;2.10;;;17.90;99.90;;;;;;4976295;28;20050;-82
2022/09/03 02:20:25;;;;;;;6.22;2.00;;;17.90;99.90;;;;;;4974533;28;20123;-79
2022/09/03 02:22:53;;;;;;;4.13;2.10;;;17.90;99.90;;;;;;4976400;28;20051;-80
2022/09/03 02:25:23;;;;;;;2.00;1.80;;;17.90;99.90;;;;;;4968110;28;20043;-82
2022/09/03 02:27:51;;;;;;;2.47;1.98;;;17.90;99.90;;;;;;4971333;28;20050;-83
2022/09/03 02:30:17;;;;;;;3.72;1.50;;;17.80;99.90;;;;;;4964581;28;20213;-83
2022/09/03 02:32:44;;;;;;;1.88;1.35;;;17.80;99.90;;;;;;4947255;28;20517;-82
2022/09/03 02:35:11;;;;;;;1.38;1.10;;;17.80;99.90;;;;;;4961465;28;20586;-80
2022/09/03 02:37:39;;;;;;;2.42;1.70;;;17.90;99.90;;;;;;4962685;28;20047;-81
2022/09/03 02:40:08;;;;;;;2.78;1.60;;;17.90;99.90;;;;;;4943522;28;20549;-81
2022/09/03 02:42:35;;;;;;;2.20;1.30;;;17.90;99.90;;;;;;4970473;28;20105;-80
2022/09/03 02:45:30;;;;;;;1.30;1.20;;;17.90;99.90;;;;;;4964584;28;20093;-82
2022/09/03 02:47:59;;;;;;;1.80;1.35;;;18.00;99.90;;;;;;4962537;28;20170;-80
2022/09/03 02:50:26;;;;;;;1.73;1.40;;;18.00;99.90;;;;;;4976526;28;20085;-80
2022/09/03 02:52:53;;;;;;;2.47;1.55;;;18.00;99.90;;;;;;4973880;28;20077;-82
2022/09/03 02:55:19;;;;;;;2.63;1.50;;;18.00;99.90;;;;;;4973062;28;20145;-83
2022/09/03 02:57:46;;;;;;;1.60;1.48;;;18.10;99.90;;;;;;4972125;28;20141;-82
2022/09/03 03:00:14;;;;;;;2.00;1.67;;;18.00;99.90;;;;;;4974743;28;20093;-81
2022/09/03 03:02:41;;;;;;;1.98;1.63;;;18.00;99.90;;;;;;4975075;28;20085;-81
2022/09/03 03:05:15;;;;;;;3.83;1.90;;;18.00;99.90;;;;;;4973845;28;20059;-82
2022/09/03 03:07:42;;;;;;;2.92;2.00;;;17.90;99.90;;;;;;4960339;28;20487;-82
2022/09/03 03:10:09;;;;;;;2.80;1.95;;;18.00;99.90;;;;;;4974792;28;20078;-83
2022/09/03 03:12:36;;;;;;;4.03;1.58;;;18.00;99.90;;;;;;4977160;28;20517;-82
2022/09/03 03:15:03;;;;;;;1.52;1.42;;;18.00;99.90;;;;;;4977944;28;20134;-81
2022/09/03 03:17:30;;;;;;;2.33;1.80;;;18.00;99.90;;;;;;4975874;28;20190;-81
2022/09/03 03:19:57;;;;;;;1.92;1.55;;;18.00;99.90;;;;;;4977117;28;20081;-79
2022/09/03 03:22:24;;;;;;;2.08;1.88;;;18.00;99.90;;;;;;4979142;28;20049;-80
2022/09/03 03:24:51;;;;;;;1.90;1.63;;;18.00;99.90;;;;;;4978129;28;20061;-81
2022/09/03 03:27:19;;;;;;;3.40;1.83;;;18.00;99.90;;;;;;4962479;28;20055;-80
2022/09/03 03:29:45;;;;;;;3.17;1.55;;;18.00;99.90;;;;;;4977729;28;20054;-82
2022/09/03 03:32:12;;;;;;;2.75;1.92;;;18.00;99.90;;;;;;4982494;28;20047;-82
2022/09/03 03:34:39;;;;;;;1.77;1.60;;;18.00;99.90;;;;;;4981010;28;20062;-80
2022/09/03 03:37:05;;;;;;;2.58;1.60;;;18.10;99.90;;;;;;4977506;28;20051;-81
2022/09/03 03:39:32;;;;;;;1.90;1.70;;;18.10;99.90;;;;;;4977785;28;20078;-81
2022/09/03 03:41:59;;;;;;;3.08;1.90;;;18.10;99.90;;;;;;4977558;28;20408;-80
2022/09/03 03:44:25;;;;;;;3.72;1.83;;;18.10;99.90;;;;;;4975517;28;20097;-82
2022/09/03 03:46:52;;;;;;;3.05;2.42;;;18.10;99.90;;;;;;4974936;28;20055;-80
2022/09/03 03:49:19;;;;;;;2.22;1.73;;;18.10;99.90;;;;;;4972064;28;20046;-82
2022/09/03 03:51:45;;;;;;;4.38;1.88;;;18.10;99.90;;;;;;4973227;28;20086;-81
2022/09/03 03:54:12;;;;;;;2.08;1.70;;;18.10;99.90;;;;;;4972974;28;20047;-82
2022/09/03 03:56:43;;;;;;;2.83;1.92;;;18.10;99.90;;;;;;4970160;28;20047;-82
2022/09/03 03:59:12;;;;;;;2.05;1.67;;;18.10;99.90;;;;;;4968783;28;20086;-80
2022/09/03 04:01:39;;;;;;;1.95;1.75;;;18.00;99.90;;;;;;4966551;28;20047;-81
2022/09/03 04:04:06;;;;;;;2.55;1.80;;;18.00;99.90;;;;;;4966191;28;20055;-80
2022/09/03 04:06:33;;;;;;;3.08;2.20;;;18.10;99.90;;;;;;4975043;28;20047;-81
2022/09/03 04:08:59;;;;;;;3.05;2.08;;;18.10;99.90;;;;;;4977937;28;20089;-81
2022/09/03 04:11:26;;;;;;;2.30;2.10;;;18.10;99.90;;;;;;4978464;28;20057;-81
2022/09/03 04:13:53;;;;;;;4.05;1.58;;;18.10;99.90;;;;;;4979904;28;20082;-81
2022/09/03 04:16:26;;;;;;;2.90;1.90;;;18.20;99.90;;;;;;4981920;28;20501;-81
2022/09/03 04:18:54;;;;;;;2.63;1.88;;;18.20;99.90;;;;;;4980559;28;20055;-79
2022/09/03 04:21:23;;;;;;;1.67;1.55;;;18.30;99.90;;;;;;4979684;28;20053;-81
2022/09/03 04:23:52;;;;;;;2.95;1.90;;;18.30;99.90;;;;;;4976301;28;20513;-81
2022/09/03 04:26:25;;;;;;;2.30;2.10;;;18.30;99.90;;;;;;4978915;28;20137;-80
2022/09/03 04:28:51;;;;;;;2.50;1.75;;;18.30;99.90;;;;;;4980173;28;20106;-81
2022/09/03 04:31:20;;;;;;;2.80;1.80;;;18.40;99.90;;;;;;4967882;28;20074;-82
2022/09/03 04:33:46;;;;;;;3.55;2.05;;;18.40;99.90;;;;;;4953556;28;20063;-82
2022/09/03 04:36:16;;;;;;;2.88;1.90;;;18.40;99.90;;;;;;4970103;28;20137;-81
2022/09/03 04:38:45;;;;;;;1.83;1.73;;;18.40;99.90;;;;;;4973657;28;20114;-81
2022/09/03 04:41:15;;;;;;;2.72;1.95;;;18.30;99.90;;;;;;4973702;28;20073;-79
2022/09/03 04:43:42;;;;;;;3.35;2.17;;;18.30;99.90;;;;;;4976161;28;20087;-81
2022/09/03 04:46:11;;;;;;;3.17;2.40;;;18.30;99.90;;;;;;4974905;28;20043;-81
2022/09/03 04:48:47;;;;;;;2.17;1.98;;;18.20;99.90;;;;;;4975053;28;20047;-80
2022/09/03 04:51:15;;;;;;;;;;;18.20;99.90;;;;;;4976363;28;20043;-81
2022/09/03 04:53:45;;;;;;;2.65;2.40;;;18.20;99.90;;;;;;4978979;28;20272;-79
2022/09/03 04:56:34;;;;;;;3.83;2.35;;;18.10;99.90;;;;;;4974390;28;20106;-79
2022/09/03 04:59:07;;;;;;;2.20;2.00;;;18.10;99.90;;;;;;4962453;28;20114;-81
2022/09/03 05:01:36;;;;;;;2.67;2.03;;;18.10;99.90;;;;;;4980641;28;20086;-82
2022/09/03 05:04:06;;;;;;;3.95;1.80;;;18.20;99.90;;;;;;4961941;28;20107;-80
2022/09/03 05:06:34;;;;;;;2.85;1.90;;;18.20;99.90;;;;;;4962755;28;20134;-79
2022/09/03 05:09:02;;;;;;;3.33;1.65;;;18.20;99.90;;;;;;4963853;28;20090;-81
2022/09/03 05:11:29;;;;;;;2.88;1.90;;;18.20;99.90;;;;;;4964570;28;20129;-81
2022/09/03 05:13:58;;;;;;;3.78;2.10;;;18.20;99.90;;;;;;4964726;28;20065;-80
2022/09/03 05:16:27;;;;;;;3.33;1.80;;;18.20;99.90;;;;;;4966909;28;20111;-82
2022/09/03 05:18:56;;;;;;;2.73;2.03;;;18.20;99.90;;;;;;4973194;28;20096;-80
2022/09/03 05:21:23;;;;;;;2.88;1.65;;;18.20;99.90;;;;;;4975861;28;20373;-79
2022/09/03 05:23:51;;;;;;;1.30;1.20;;;18.20;99.90;;;;;;4976397;28;20047;-79
2022/09/03 05:26:26;;;;;;;1.75;1.58;;;18.20;99.90;;;;;;4972404;28;20067;-79
2022/09/03 05:28:54;;;;;;;4.50;1.40;;;18.20;99.90;;;;;;4972897;28;20107;-81
2022/09/03 05:31:22;;;;;;;1.35;1.25;;;18.20;99.90;;;;;;4971207;28;20497;-82
2022/09/03 05:33:52;;;;;;;1.30;1.17;;;18.30;99.90;;;;;;4970976;28;20058;-80
2022/09/03 05:36:24;;;;;;;1.58;1.35;;;18.30;99.90;;;;;;4968029;28;20050;-81
2022/09/03 05:38:54;;;;;;;1.88;1.30;;;18.40;99.90;;;;;;4978688;28;20054;-79
2022/09/03 05:41:24;;;;;;;1.58;1.25;;;18.40;99.90;;;;;;4979819;28;20133;-80
2022/09/03 05:43:57;;;;;;;2.05;1.25;;;18.50;99.90;;;;;;4967923;28;20078;-79
2022/09/03 05:46:30;;;;;;;1.33;1.10;;;18.50;99.90;;;;;;4964781;28;20050;-80
2022/09/03 05:48:59;;;;;;;2.88;1.48;;;18.50;99.90;;;;;;4982596;28;20093;-80
2022/09/03 05:51:26;;;;;;;1.30;1.15;;;18.50;99.90;;;;;;4982139;28;20465;-80
2022/09/03 05:53:54;;;;;;;1.13;1.02;;;18.50;99.90;;;;;;4962779;28;20164;-81
2022/09/03 05:56:23;;;;;;;1.20;1.10;;;18.60;99.90;;;;;;4963495;28;20524;-82
2022/09/03 05:58:55;;;;;;;3.28;1.42;;;18.60;99.90;;;;;;4965797;28;20059;-81
2022/09/03 06:01:27;;;;;;;3.97;1.20;;;18.70;99.90;;;;;;4965261;28;20568;-81
2022/09/03 06:03:57;;;;;;;2.15;1.30;;;18.70;99.90;;;;;;4974614;28;20073;-82
2022/09/03 06:06:25;;;;;;;1.38;1.10;;;18.70;99.90;;;;;;4973546;28;20083;-82
2022/09/03 06:08:57;;;;;;;1.10;1.00;;;18.80;99.90;;;;;;4969426;28;20047;-82
2022/09/03 06:11:26;;;;;;;1.13;0.77;;;18.90;99.90;;;;;;4971427;28;20051;-81
2022/09/03 06:13:55;;;;;;;1.70;1.20;;;18.90;99.90;;;;;;4969614;28;20062;-83
2022/09/03 06:16:22;;;;;;;0.90;0.82;;;19.00;99.90;;;;;;4969640;28;20557;-83
2022/09/03 06:18:58;;;;;;;1.75;1.30;;;19.00;99.90;;;;;;4967501;28;20055;-82
2022/09/03 06:21:25;;;;;;;1.23;1.08;;;19.10;99.90;;;;;;4966487;28;20047;-82
2022/09/03 06:23:57;;;;;;;1.27;1.00;;;19.10;99.90;;;;;;4964641;28;20553;-83
2022/09/03 06:26:27;;;;;;;3.00;1.10;;;19.10;99.90;;;;;;4975563;28;20043;-83
2022/09/03 06:28:55;;;;;;;1.92;1.30;;;19.20;99.90;;;;;;4976888;28;20572;-83
2022/09/03 06:31:23;;;;;;;0.73;0.73;;;19.20;99.90;;;;;;4977287;28;20047;-82
2022/09/03 06:33:50;;;;;;;1.63;0.90;;;19.20;99.90;;;;;;4979445;28;20047;-83
2022/09/03 06:36:18;;;;;;;1.95;1.10;;;19.30;99.90;;;;;;4979366;28;20086;-83
2022/09/03 06:38:46;;;;;;;3.22;1.40;;;19.30;99.90;;;;;;4978968;28;20114;-80
2022/09/03 06:41:23;;;;;;;1.30;1.20;;;19.30;99.90;;;;;;4962885;28;20085;-83
2022/09/03 06:43:53;;;;;;;1.10;1.00;;;19.30;99.90;;;;;;4976919;28;20130;-83
2022/09/03 06:46:22;;;;;;;1.33;1.23;;;19.30;99.90;;;;;;4975496;28;20070;-83
2022/09/03 06:48:50;;;;;;;1.45;1.35;;;19.40;99.90;;;;;;4974756;28;20685;-83
2022/09/03 06:51:19;;;;;;;3.17;1.35;;;19.30;99.90;;;;;;4973101;28;20082;-83
2022/09/03 06:53:48;;;;;;;1.65;1.10;;;19.40;99.90;;;;;;4972206;28;20086;-81
2022/09/03 06:56:17;;;;;;;3.53;1.23;;;19.40;99.90;;;;;;4972028;28;20078;-82
2022/09/03 06:58:46;;;;;;;3.03;1.63;;;19.50;99.90;;;;;;4968405;28;20059;-83
2022/09/03 07:01:19;;;;;;;1.17;1.08;;;19.60;99.90;;;;;;4970052;28;20102;-83
2022/09/03 07:03:47;;;;;;;2.75;1.10;;;19.70;99.90;;;;;;4968563;28;20090;-83
2022/09/03 07:06:17;;;;;;;3.58;1.20;;;19.70;99.90;;;;;;4967353;28;20234;-82
2022/09/03 07:08:45;;;;;;;1.27;1.10;;;19.70;99.90;;;;;;4949460;28;20114;-83
2022/09/03 07:11:18;;;;;;;2.47;1.45;;;19.80;99.90;;;;;;4968335;28;20082;-83
2022/09/03 07:13:46;;;;;;;2.75;1.17;;;19.80;99.90;;;;;;4963635;28;20047;-82
2022/09/03 07:16:16;;;;;;;1.10;1.00;;;19.80;99.90;;;;;;4966170;28;20063;-83
2022/09/03 07:18:43;;;;;;;1.37;1.20;;;19.90;99.90;;;;;;4961889;28;20110;-81
2022/09/03 07:21:15;;;;;;;1.20;1.10;;;19.90;99.90;;;;;;4960934;28;20341;-83
2022/09/03 07:23:42;;;;;;;2.20;1.20;;;19.90;99.90;;;;;;4976906;28;20134;-83
2022/09/03 07:26:12;;;;;;;1.60;1.13;;;20.00;99.90;;;;;;4977813;28;20129;-83
2022/09/03 07:28:41;;;;;;;1.52;1.10;;;20.00;99.90;;;;;;4975086;28;20050;-81
2022/09/03 07:31:11;;;;;;;1.35;1.00;;;20.00;99.90;;;;;;4975358;28;20066;-82
2022/09/03 07:33:38;;;;;;;;;;;20.00;99.90;;;;;;4976995;28;20142;-83
2022/09/03 07:36:11;;;;;;;1.88;0.93;;;20.10;99.90;;;;;;4979023;28;20432;-83
2022/09/03 07:38:37;;;;;;;1.38;1.00;;;20.10;99.90;;;;;;4973174;28;20094;-82
2022/09/03 07:41:07;;;;;;;1.52;1.40;;;20.10;99.90;;;;;;4954908;28;20093;-83
2022/09/03 07:43:42;;;;;;;1.35;1.08;;;20.10;99.90;;;;;;4970811;28;20093;-83
2022/09/03 07:46:12;;;;;;;1.27;1.05;;;20.10;99.90;;;;;;4972156;28;20047;-84
2022/09/03 07:48:40;;;;;;;1.67;0.90;;;20.10;99.90;;;;;;4975571;28;20054;-83
2022/09/03 07:51:07;;;;;;;1.48;1.08;;;20.10;99.90;;;;;;4975914;28;20082;-83
2022/09/03 07:53:35;;;;;;;4.93;1.38;;;20.20;99.90;;;;;;4957394;28;20589;-81
2022/09/03 07:56:04;;;;;;;2.97;1.63;;;20.30;99.90;;;;;;4970441;28;20055;-83
2022/09/03 07:58:32;;;;;;;2.20;1.25;;;20.40;99.90;;;;;;4970843;28;20110;-83
2022/09/03 08:01:14;;;;;;;1.10;0.98;;;20.50;99.90;;;;;;4967822;28;20094;-83
2022/09/03 08:03:47;;;;;;;1.95;0.95;;;20.50;99.90;;;;;;4967689;28;20102;-82
2022/09/03 08:06:15;;;;;;;1.67;1.17;;;20.60;99.90;;;;;;4965023;28;20130;-84
2022/09/03 08:08:44;;;;;;;5.30;1.17;;;20.70;99.90;;;;;;4967807;28;20055;-83
2022/09/03 08:11:15;;;;;;;6.15;1.17;;;20.80;99.90;;;;;;4979683;28;20086;-82
2022/09/03 08:13:44;;;;;;;1.10;0.90;;;20.90;99.90;;;;;;4981688;28;20078;-82
2022/09/03 08:16:12;;;;;;;1.13;0.70;;;21.00;99.90;;;;;;4965148;28;20062;-83
2022/09/03 08:18:39;;;;;;;1.35;0.93;;;21.00;99.90;;;;;;4976581;28;20055;-84
2022/09/03 08:21:15;;;;;;;1.75;1.00;;;21.10;99.90;;;;;;4977885;28;20129;-83
2022/09/03 08:23:44;;;;;;;1.25;1.00;;;21.10;99.90;;;;;;4977306;28;20093;-82
2022/09/03 08:26:13;;;;;;;1.92;1.35;;;21.10;99.90;;;;;;4976214;28;20070;-82
2022/09/03 08:28:41;;;;;;;1.45;1.08;;;21.00;99.90;;;;;;4964269;28;20070;-84
2022/09/03 08:31:13;;;;;;;1.10;0.90;;;21.00;99.90;;;;;;4973784;28;20074;-83
2022/09/03 08:33:42;;;;;;;2.88;0.98;;;21.00;99.90;;;;;;4971849;28;20055;-83
2022/09/03 08:36:14;;;;;;;4.68;1.13;;;21.00;99.90;;;;;;4971262;28;20047;-83
2022/09/03 08:38:44;;;;;;;1.60;0.95;;;21.10;99.90;;;;;;4974775;28;20110;-83
2022/09/03 08:41:29;;;;;;;0.82;0.82;;;21.10;99.90;;;;;;4958837;28;20047;-83
2022/09/03 08:44:16;;;;;;;1.40;0.70;;;21.20;99.90;;;;;;4978068;28;20086;-82
2022/09/03 08:47:10;;;;;;;1.13;1.00;;;21.20;99.90;;;;;;4978506;28;20521;-83
2022/09/03 08:49:43;;;;;;;1.10;1.00;;;21.20;99.90;;;;;;4979174;28;20078;-83
2022/09/03 08:52:37;;;;;;;2.05;1.10;;;21.20;99.90;;;;;;4979165;28;20064;-82
2022/09/03 08:55:07;;;;;;;1.20;1.10;;;21.10;99.90;;;;;;4980192;28;20600;-82
2022/09/03 08:57:42;;;;;;;1.20;1.10;;;21.00;99.90;;;;;;4978175;28;20101;-82
2022/09/03 09:00:09;;;;;;;1.90;1.20;;;20.90;99.90;;;;;;4963060;28;20593;-83
2022/09/03 09:02:59;;;;;;;1.20;1.10;;;20.90;99.90;;;;;;4972417;28;20484;-81
2022/09/03 09:05:59;;;;;;;1.75;1.13;;;20.70;99.90;;;;;;4964073;28;20044;-82
2022/09/03 09:08:39;;;;;;;1.27;1.17;;;20.60;99.90;;;;;;4963587;28;20138;-82
2022/09/03 09:11:24;;;;;;;1.45;1.20;;;20.50;99.90;;;;;;4973067;28;20107;-82
2022/09/03 09:14:12;;;;;;;6.47;1.80;;;20.40;99.90;;;;;;4966372;28;20668;-79
2022/09/03 09:17:00;;;;;;;5.35;2.08;;;20.30;99.90;;;;;;4972258;28;20442;-83
2022/09/03 09:19:46;;;;;;;8.73;2.20;;;20.20;99.90;;;;;;4968548;28;20078;-81
2022/09/03 09:22:34;;;;;;;3.47;1.92;;;20.00;99.90;;;;;;4971991;28;20055;-84
2022/09/03 09:25:08;;;;;;;4.43;2.22;;;19.70;99.90;;;;;;4952831;28;20512;-81
2022/09/03 09:27:34;;;;;;;5.03;2.08;;;19.50;99.90;;;;;;4969615;28;20070;-81
2022/09/03 09:30:04;;;;;;;4.90;2.40;;;19.40;99.90;;;;;;4970665;28;20497;-82
2022/09/03 09:32:33;;;;;;;3.05;1.80;;;19.30;99.90;;;;;;4973933;28;20177;-81
2022/09/03 09:35:00;;;;;;;3.42;1.98;;;19.20;99.90;;;;;;4974633;28;20074;-81
2022/09/03 09:37:27;;;;;;;4.63;1.75;;;19.20;99.90;;;;;;4974640;28;20050;-82
2022/09/03 09:39:57;;;;;;;3.60;1.50;;;19.10;99.90;;;;;;4976490;28;20138;-82
2022/09/03 09:42:24;;;;;;;2.20;1.60;;;19.10;99.90;;;;;;4961610;28;20517;-81
2022/09/03 09:44:52;;;;;;;4.18;2.30;;;19.00;99.90;;;;;;4976013;28;20050;-81
2022/09/03 09:47:33;;;;;;;2.05;1.58;;;19.00;99.90;;;;;;4963611;28;20070;-81
2022/09/03 09:50:01;;;;;;;3.33;1.58;;;18.90;99.90;;;;;;4977288;28;20051;-82
2022/09/03 09:52:29;;;;;;;3.08;1.55;;;18.90;99.90;;;;;;4976708;28;20109;-82
2022/09/03 09:55:14;;;;;;;3.53;1.90;;;18.90;99.90;;;;;;4963474;28;20074;-81
2022/09/03 09:57:41;;;;;;;1.98;1.63;;;18.80;99.90;;;;;;4972823;28;20055;-81
2022/09/03 10:00:14;;;;;;;2.13;1.30;;;18.80;99.90;;;;;;4967117;28;20646;-83
2022/09/03 10:02:49;;;;;;;2.50;1.08;;;18.70;99.90;;;;;;4972848;28;20082;-81
2022/09/03 10:05:29;;;;;;;1.95;1.25;;;18.60;99.90;;;;;;4978492;28;20046;-83
2022/09/03 10:08:03;;;;;;;2.72;1.15;;;18.60;99.90;;;;;;4973297;28;20457;-81
2022/09/03 10:10:36;;;;;;;3.30;1.50;;;18.50;99.90;;;;;;4952410;28;20130;-81
2022/09/03 10:13:12;;;;;;;1.77;1.05;;;18.50;99.90;;;;;;4950571;28;20051;-82
2022/09/03 10:15:50;;;;;;;3.42;0.98;;;18.50;99.90;;;;;;4977945;28;20125;-82
2022/09/03 10:18:44;;;;;;;3.42;1.23;;;18.40;99.90;;;;;;4949777;28;20057;-83
2022/09/03 10:21:28;;;;;;;3.63;1.10;;;18.50;99.90;;;;;;4958857;28;20187;-83
2022/09/03 10:24:30;;;;;;;1.95;1.02;;;18.50;99.90;;;;;;4976959;28;20051;-80
2022/09/03 10:26:57;;;;;;;1.67;1.00;;;18.50;99.90;;;;;;4978414;28;20142;-83
2022/09/03 10:29:28;;;;;;;4.13;1.08;;;18.50;99.90;;;;;;4979021;28;20150;-82
2022/09/03 10:32:04;;;;;;;3.70;1.35;;;18.60;99.90;;;;;;4962279;28;20077;-81
2022/09/03 10:34:43;;;;;;;2.88;1.15;;;18.60;99.90;;;;;;4978860;28;20133;-81
2022/09/03 10:37:15;;;;;;;1.60;0.85;;;18.70;99.90;;;;;;4978809;28;20081;-80
2022/09/03 10:39:57;;;;;;;2.80;1.52;;;18.70;99.90;;;;;;4975561;28;20062;-81
2022/09/03 10:42:39;;;;;;;2.40;1.25;;;18.70;99.90;;;;;;4968276;28;20051;-83
2022/09/03 10:45:15;;;;;;;5.50;1.30;;;18.80;99.90;;;;;;4969895;28;20564;-82
2022/09/03 10:48:00;;;;;;;2.22;0.80;;;18.90;99.90;;;;;;4972964;28;20110;-81
2022/09/03 10:50:47;;;;;;;1.92;1.00;;;19.00;99.90;;;;;;4969966;28;20452;-81
2022/09/03 10:53:32;;;;;;;1.10;0.60;;;19.20;99.90;;;;;;4969649;28;20074;-78
2022/09/03 10:56:16;;;;;;;1.23;0.80;;;19.30;99.90;;;;;;4968676;28;20142;-82
2022/09/03 10:59:06;;;;;;;1.25;0.88;;;19.50;99.90;;;;;;4973754;28;20075;-81
2022/09/03 11:04:04;;;;;;;1.40;0.98;;;19.90;99.90;;;;;;5038112;23;19948;-78
2022/09/03 11:06:46;;;;;;;0.85;0.70;;;20.10;99.90;;;;;;4998907;28;20137;-77
2022/09/03 11:09:19;;;;;;;1.50;0.73;;;20.20;99.90;;;;;;5013521;28;20591;-77
2022/09/03 11:12:01;;;;;;;2.20;0.65;;;20.30;99.90;;;;;;4992630;28;20073;-78
2022/09/03 11:14:34;;;;;;;2.22;0.75;;;20.40;99.90;;;;;;4991692;28;20133;-79
2022/09/03 11:17:37;;;;;;;1.60;0.80;;;20.50;99.90;;;;;;4974900;28;20418;-78
2022/09/03 11:20:20;;;;;;;1.30;0.60;;;20.60;99.90;;;;;;4963123;28;20100;-78
2022/09/03 11:22:52;;;;;;;1.35;0.50;;;20.60;99.90;;;;;;4989108;28;20087;-77
2022/09/03 11:25:24;;;;;;;1.30;0.50;;;20.60;99.90;;;;;;4985873;28;20075;-78
2022/09/03 11:28:19;;;;;;;0.90;0.60;;;20.50;99.90;;;;;;4989368;28;20049;-77
2022/09/03 11:30:59;;;;;;;1.02;0.50;;;20.40;99.90;;;;;;4991685;28;20078;-77
2022/09/03 11:33:27;;;;;;;0.60;0.50;;;20.40;99.90;;;;;;4988950;28;20056;-77
2022/09/03 11:36:01;;;;;;;0.50;0.40;;;20.40;99.90;;;;;;4977034;28;20074;-77
2022/09/03 11:38:32;;;;;;;2.25;0.40;;;20.40;99.90;;;;;;4966794;28;20146;-77
2022/09/03 11:41:14;;;;;;;1.23;0.57;;;20.40;99.90;;;;;;4977181;28;20078;-78
2022/09/03 11:43:44;;;;;;;0.30;0.30;;;20.30;99.90;;;;;;4965105;28;20106;-77
2022/09/03 11:46:11;;;;;;;;;;;20.20;99.90;;;;;;4977106;28;20047;-77
2022/09/03 11:48:44;;;;;;;0.43;0.30;;;20.20;99.90;;;;;;4976452;28;19926;-75
2022/09/03 11:51:20;;;;;;;0.30;0.30;;;20.10;99.90;;;;;;4968806;28;20046;-76
2022/09/03 11:53:54;;;;;;;0.40;0.40;;;20.10;99.90;;;;;;4984043;28;20050;-77
2022/09/03 11:56:21;;;;;;;0.73;0.30;;;20.10;99.90;;;;;;4984799;28;20078;-75
2022/09/03 11:59:17;;;;;;;1.20;0.88;;;20.10;99.90;;;;;;4969390;28;20504;-76
2022/09/03 12:01:51;;;;;;;0.60;0.40;;;20.10;99.90;;;;;;4986643;28;20056;-76
2022/09/03 12:04:24;;;;;;;0.63;0.50;;;20.10;99.90;;;;;;4985108;28;20465;-76
2022/09/03 12:07:03;;;;;;;0.60;0.40;;;20.10;99.90;;;;;;4984887;28;20046;-76
2022/09/03 12:09:50;;;;;;;2.08;0.60;;;20.20;99.90;;;;;;4984887;28;20418;-76
2022/09/03 12:12:47;;;;;;;0.50;0.45;;;20.30;99.90;;;;;;4986976;28;20449;-76
2022/09/03 12:15:41;;;;;;;1.13;0.50;;;20.40;99.90;;;;;;4984612;28;20070;-77
2022/09/03 12:18:19;;;;;;;2.13;0.60;;;20.50;99.90;;;;;;4986978;28;20050;-75
2022/09/03 12:20:52;;;;;;;1.77;0.50;;;20.70;99.90;;;;;;4973604;28;20468;-77
2022/09/03 12:23:34;;;;;;;1.75;0.50;;;20.80;99.90;;;;;;4983939;28;20077;-76
2022/09/03 12:26:13;;;;;;;0.63;0.50;;;20.90;99.90;;;;;;4984267;28;20089;-76
2022/09/03 12:28:43;;;;;;;0.55;0.47;;;21.00;99.90;;;;;;4985683;28;20502;-76
2022/09/03 12:31:29;;;;;;;0.60;0.40;;;21.10;99.90;;;;;;4984202;28;20408;-77
2022/09/03 12:33:59;;;;;;;1.02;0.52;;;21.30;99.90;;;;;;4980676;28;20144;-77
2022/09/03 12:36:37;;;;;;;1.25;0.45;;;21.30;99.90;;;;;;4963175;28;20054;-76
2022/09/03 12:39:23;;;;;;;0.82;0.63;;;21.40;99.90;;;;;;4972930;28;20483;-76
2022/09/03 12:42:17;;;;;;;1.70;0.70;;;21.50;99.90;;;;;;4987786;28;20055;-77
2022/09/03 12:44:44;;;;;;;0.80;0.68;;;21.60;99.90;;;;;;4986072;28;20141;-77
2022/09/03 12:47:12;;;;;;;1.38;0.88;;;21.60;99.90;;;;;;4992668;28;20186;-76
2022/09/03 12:50:09;;;;;;;3.70;0.82;;;21.80;99.90;;;;;;4983221;28;20050;-77
2022/09/03 12:52:40;;;;;;;0.82;0.82;;;21.90;99.90;;;;;;4988616;28;20615;-76
2022/09/03 12:55:40;;;;;;;0.75;0.70;;;22.00;99.90;;;;;;4992221;28;20081;-77
2022/09/03 12:58:21;;;;;;;0.85;0.65;;;22.00;99.90;;;;;;4976061;28;20516;-77
2022/09/03 13:01:15;;;;;;;0.70;0.70;;;22.10;99.90;;;;;;4989578;28;20074;-78
2022/09/03 13:03:56;;;;;;;1.40;0.73;;;22.10;99.90;;;;;;4973619;28;20158;-78
2022/09/03 13:06:28;;;;;;;0.77;0.77;;;22.10;99.90;;;;;;4974607;28;20137;-77
2022/09/03 13:09:05;;;;;;;1.23;0.80;;;22.10;99.90;;;;;;4983553;28;20054;-78
2022/09/03 13:11:36;;;;;;;1.38;0.85;;;22.00;99.90;;;;;;4983010;28;20047;-75
2022/09/03 13:14:04;;;;;;;1.30;0.90;;;22.00;99.90;;;;;;4973588;28;20080;-77
2022/09/03 13:16:43;;;;;;;1.92;1.00;;;22.00;99.90;;;;;;4973339;28;20082;-78
2022/09/03 13:19:55;;;;;;;1.13;0.80;;;21.90;99.90;;;;;;4981872;28;20047;-77
2022/09/03 13:22:46;;;;;;;1.88;1.00;;;22.00;99.90;;;;;;4980336;28;20486;-76
2022/09/03 13:25:31;;;;;;;1.10;1.00;;;22.00;99.90;;;;;;4989109;28;20145;-78
2022/09/03 13:28:26;;;;;;;2.35;1.88;;;22.10;99.90;;;;;;4990113;28;20180;-78